createdAt,value
2023-01-23T00:01:42.024Z,103133.09
2023-01-23T00:04:14.299Z,103139.00
2023-01-23T00:06:42.014Z,103140.69
2023-01-23T00:09:10.572Z,103137.38
2023-01-23T00:11:38.532Z,103130.63
2023-01-23T00:14:05.464Z,103138.78
2023-01-23T00:16:33.516Z,103135.00
2023-01-23T00:19:01.389Z,103130.06
2023-01-23T00:21:31.762Z,103134.50
2023-01-23T00:24:02.246Z,103141.25
2023-01-23T00:26:34.744Z,103133.09
2023-01-23T00:29:04.801Z,103129.84
2023-01-23T00:31:36.449Z,103131.59
2023-01-23T00:34:13.665Z,103133.25
2023-01-23T00:36:43.285Z,103136.09
2023-01-23T00:39:23.494Z,103137.44
2023-01-23T00:41:51.010Z,103141.47
2023-01-23T00:44:18.369Z,103140.84
2023-01-23T00:46:45.664Z,103149.78
2023-01-23T00:49:12.791Z,103149.31
2023-01-23T00:51:40.341Z,103149.72
2023-01-23T00:54:11.792Z,103166.66
2023-01-23T00:56:39.652Z,103163.19
2023-01-23T00:59:07.349Z,103167.44
2023-01-23T01:01:35.074Z,103167.13
2023-01-23T01:04:02.179Z,103170.78
2023-01-23T01:06:31.723Z,103172.34
2023-01-23T01:08:59.713Z,103176.16
2023-01-23T01:11:27.668Z,103184.16
2023-01-23T01:13:57.286Z,103176.09
2023-01-23T01:16:25.028Z,103187.25
2023-01-23T01:18:55.424Z,103180.69
2023-01-23T01:21:23.256Z,103186.94
2023-01-23T01:23:50.400Z,103182.66
2023-01-23T01:26:23.605Z,103190.09
2023-01-23T01:28:54.016Z,103184.94
2023-01-23T01:31:24.060Z,103189.78
2023-01-23T01:33:53.235Z,103182.59
2023-01-23T01:36:23.946Z,103189.16
2023-01-23T01:38:52.113Z,103192.16
2023-01-23T01:41:19.317Z,103193.28
2023-01-23T01:43:48.748Z,103192.94
2023-01-23T01:46:25.510Z,103197.31
2023-01-23T01:49:19.918Z,103202.63
2023-01-23T01:52:01.154Z,103200.41
2023-01-23T01:54:34.405Z,103211.31
2023-01-23T01:57:03.888Z,103209.56
2023-01-23T01:59:40.014Z,103212.03
2023-01-23T02:02:16.652Z,103209.28
2023-01-23T02:04:51.741Z,103207.13
2023-01-23T02:07:33.145Z,103213.31
2023-01-23T02:10:03.678Z,103212.28
2023-01-23T02:12:35.482Z,103214.81
2023-01-23T02:15:08.051Z,103216.25
2023-01-23T02:17:39.539Z,103215.13
2023-01-23T02:20:27.208Z,103226.84
2023-01-23T02:23:11.447Z,103216.81
2023-01-23T02:25:44.443Z,103223.06
2023-01-23T02:28:13.331Z,103222.41
2023-01-23T02:30:47.134Z,103224.94
2023-01-23T02:33:20.336Z,103229.53
2023-01-23T02:35:47.688Z,103219.78
2023-01-23T02:38:21.115Z,103222.41
2023-01-23T02:40:48.102Z,103219.41
2023-01-23T02:43:21.452Z,103220.00
2023-01-23T02:45:52.258Z,103222.97
2023-01-23T02:48:24.277Z,103228.25
2023-01-23T02:50:51.451Z,103226.66
2023-01-23T02:53:20.695Z,103222.72
2023-01-23T02:55:50.488Z,103217.47
2023-01-23T02:58:38.139Z,103216.22
2023-01-23T03:01:05.485Z,103215.44
2023-01-23T03:03:34.978Z,103218.75
2023-01-23T03:06:06.045Z,103223.16
2023-01-23T03:08:36.818Z,103216.06
2023-01-23T03:11:06.970Z,103218.44
2023-01-23T03:13:33.868Z,103221.28
2023-01-23T03:16:01.060Z,103215.88
2023-01-23T03:18:31.287Z,103215.97
2023-01-23T03:21:05.498Z,103216.78
2023-01-23T03:23:37.395Z,103228.06
2023-01-23T03:26:04.734Z,103221.88
2023-01-23T03:28:50.221Z,103223.94
2023-01-23T03:31:17.594Z,103220.53
2023-01-23T03:33:44.820Z,103229.28
2023-01-23T03:36:13.248Z,103225.38
2023-01-23T03:39:05.248Z,103226.84
2023-01-23T03:41:34.781Z,103233.63
2023-01-23T03:44:01.802Z,103225.09
2023-01-23T03:46:28.686Z,103219.16
2023-01-23T03:48:57.808Z,103231.06
2023-01-23T03:51:24.946Z,103224.59
2023-01-23T03:53:54.182Z,103224.66
2023-01-23T03:56:21.334Z,103227.84
2023-01-23T03:58:48.382Z,103227.25
2023-01-23T04:01:15.454Z,103237.44
2023-01-23T04:03:45.121Z,103227.22
2023-01-23T04:06:12.222Z,103227.47
2023-01-23T04:08:41.257Z,103233.84
2023-01-23T04:11:10.794Z,103233.50
2023-01-23T04:13:39.072Z,103227.16
2023-01-23T04:16:07.289Z,103231.66
2023-01-23T04:18:34.702Z,103238.25
2023-01-23T04:21:01.958Z,103231.72
2023-01-23T04:23:31.066Z,103241.59
2023-01-23T04:25:58.505Z,103241.75
2023-01-23T04:28:28.694Z,103254.47
2023-01-23T04:31:01.552Z,103255.78
2023-01-23T04:33:28.676Z,103254.75
2023-01-23T04:36:07.317Z,103259.91
2023-01-23T04:38:35.245Z,103250.34
2023-01-23T04:41:06.441Z,103251.22
2023-01-23T04:43:33.733Z,103246.25
2023-01-23T04:46:03.605Z,103243.63
2023-01-23T04:48:30.693Z,103248.78
2023-01-23T04:50:57.987Z,103253.94
2023-01-23T04:53:25.338Z,103249.50
2023-01-23T04:55:54.937Z,103263.56
2023-01-23T04:58:27.235Z,103256.28
2023-01-23T05:00:54.204Z,103257.88
2023-01-23T05:03:21.307Z,103261.69
2023-01-23T05:05:48.248Z,103274.03
2023-01-23T05:08:18.383Z,103276.50
2023-01-23T05:10:45.779Z,103270.66
2023-01-23T05:13:12.952Z,103271.91
2023-01-23T05:15:42.956Z,103273.16
2023-01-23T05:18:14.655Z,103277.53
2023-01-23T05:20:46.117Z,103275.16
2023-01-23T05:23:13.473Z,103277.53
2023-01-23T05:25:40.411Z,103286.94
2023-01-23T05:28:07.451Z,103291.06
2023-01-23T05:30:34.658Z,103291.78
2023-01-23T05:33:01.667Z,103289.44
2023-01-23T05:35:31.490Z,103288.44
2023-01-23T05:37:58.466Z,103289.19
2023-01-23T05:40:25.566Z,103286.94
2023-01-23T05:42:52.655Z,103292.53
2023-01-23T05:45:19.674Z,103297.78
2023-01-23T05:47:47.529Z,103297.13
2023-01-23T05:50:20.123Z,103302.59
2023-01-23T05:52:47.354Z,103307.44
2023-01-23T05:55:16.488Z,103311.09
2023-01-23T05:57:43.536Z,103308.03
2023-01-23T06:00:13.956Z,103316.94
2023-01-23T06:02:41.689Z,103327.91
2023-01-23T06:05:09.575Z,103332.13
2023-01-23T06:07:39.072Z,103329.59
2023-01-23T06:10:10.044Z,103332.84
2023-01-23T06:12:37.302Z,103329.50
2023-01-23T06:15:10.892Z,103322.94
2023-01-23T06:17:42.818Z,103327.91
2023-01-23T06:20:14.700Z,103339.47
2023-01-23T06:22:41.640Z,103329.72
2023-01-23T06:25:11.452Z,103340.28
2023-01-23T06:27:38.435Z,103336.06
2023-01-23T06:30:08.815Z,103345.22
2023-01-23T06:32:35.843Z,103343.53
2023-01-23T06:35:02.731Z,103355.13
2023-01-23T06:37:29.716Z,103353.59
2023-01-23T06:39:56.727Z,103358.69
2023-01-23T06:42:23.748Z,103363.56
2023-01-23T06:44:50.659Z,103361.97
2023-01-23T06:47:20.302Z,103362.69
2023-01-23T06:49:50.227Z,103371.34
2023-01-23T06:52:17.248Z,103374.16
2023-01-23T06:54:44.112Z,103374.69
2023-01-23T06:57:15.591Z,103378.03
2023-01-23T06:59:42.515Z,103378.97
2023-01-23T07:02:14.505Z,103379.56
2023-01-23T07:04:43.962Z,103388.22
2023-01-23T07:07:13.921Z,103379.69
2023-01-23T07:09:41.004Z,103375.69
2023-01-23T07:12:10.087Z,103385.00
2023-01-23T07:14:37.113Z,103388.78
2023-01-23T07:17:04.096Z,103393.69
2023-01-23T07:19:31.000Z,103388.38
2023-01-23T07:21:58.003Z,103391.53
2023-01-23T07:24:28.498Z,103397.41
2023-01-23T07:26:55.491Z,103397.25
2023-01-23T07:29:22.473Z,103410.28
2023-01-23T07:31:51.646Z,103411.59
2023-01-23T07:34:18.653Z,103415.38
2023-01-23T07:36:45.687Z,103416.28
2023-01-23T07:39:17.896Z,103407.38
2023-01-23T07:41:46.477Z,103417.59
2023-01-23T07:44:25.265Z,103420.69
2023-01-23T07:46:52.330Z,103423.69
2023-01-23T07:49:21.825Z,103422.91
2023-01-23T07:51:48.836Z,103412.19
2023-01-23T07:54:15.895Z,103416.06
2023-01-23T07:56:45.601Z,103414.56
2023-01-23T07:59:13.585Z,103422.84
2023-01-23T08:01:40.656Z,103416.91
2023-01-23T08:04:10.727Z,103423.03
2023-01-23T08:06:40.410Z,103428.13
2023-01-23T08:09:12.840Z,103430.38
2023-01-23T08:11:41.027Z,103435.06
2023-01-23T08:14:08.037Z,103438.19
2023-01-23T08:16:35.070Z,103436.00
2023-01-23T08:19:08.335Z,103440.69
2023-01-23T08:21:37.702Z,103442.25
2023-01-23T08:24:05.174Z,103449.38
2023-01-23T08:26:34.644Z,103444.84
2023-01-23T08:29:04.255Z,103447.41
2023-01-23T08:31:33.709Z,103446.25
2023-01-23T08:34:00.729Z,103451.31
2023-01-23T08:36:30.861Z,103455.78
2023-01-23T08:39:00.563Z,103455.06
2023-01-23T08:41:32.456Z,103459.72
2023-01-23T08:44:01.839Z,103461.72
2023-01-23T08:46:29.850Z,103451.88
2023-01-23T08:48:59.392Z,103450.06
2023-01-23T08:51:27.755Z,103442.41
2023-01-23T08:53:54.830Z,103461.91
2023-01-23T08:56:27.917Z,103464.00
2023-01-23T08:58:55.108Z,103468.28
2023-01-23T09:01:25.641Z,103459.44
2023-01-23T09:03:53.360Z,103466.53
2023-01-23T09:06:23.403Z,103476.06
2023-01-23T09:08:50.749Z,103472.72
2023-01-23T09:11:18.792Z,103471.44
2023-01-23T09:13:47.112Z,103475.19
2023-01-23T09:16:14.588Z,103470.31
2023-01-23T09:18:41.749Z,103479.19
2023-01-23T09:21:13.062Z,103473.72
2023-01-23T09:23:43.216Z,103478.09
2023-01-23T09:26:15.238Z,103469.22
2023-01-23T09:28:43.132Z,103475.75
2023-01-23T09:31:15.607Z,103470.97
2023-01-23T09:33:45.196Z,103486.78
2023-01-23T09:36:12.395Z,103484.50
2023-01-23T09:38:39.597Z,103483.75
2023-01-23T09:41:20.825Z,103485.28
2023-01-23T09:43:55.763Z,103489.88
2023-01-23T09:46:46.396Z,103498.16
2023-01-23T09:49:47.008Z,103498.31
2023-01-23T09:52:22.116Z,103488.66
2023-01-23T09:55:15.559Z,103491.94
2023-01-23T09:57:57.389Z,103495.94
2023-01-23T10:00:27.693Z,103491.56
2023-01-23T10:02:56.868Z,103492.50
2023-01-23T10:06:01.309Z,103490.16
2023-01-23T10:09:05.515Z,103487.41
2023-01-23T10:12:15.997Z,103491.78
2023-01-23T10:15:10.930Z,103495.31
2023-01-23T10:18:08.496Z,103497.59
2023-01-23T10:20:53.292Z,103496.56
2023-01-23T10:23:38.204Z,103496.59
2023-01-23T10:26:18.293Z,103496.38
2023-01-23T10:28:51.189Z,103487.84
2023-01-23T10:31:33.813Z,103489.97
2023-01-23T10:34:24.966Z,103496.50
2023-01-23T10:36:57.815Z,103491.91
2023-01-23T10:39:45.429Z,103489.56
2023-01-23T10:42:18.530Z,103491.28
2023-01-23T10:44:48.235Z,103488.63
2023-01-23T10:47:32.802Z,103482.53
2023-01-23T10:50:01.069Z,103489.28
2023-01-23T10:52:46.877Z,103487.66
2023-01-23T10:55:31.253Z,103483.72
2023-01-23T10:58:03.928Z,103489.97
2023-01-23T11:00:45.435Z,103495.00
2023-01-23T11:03:21.759Z,103488.59
2023-01-23T11:05:53.456Z,103490.03
2023-01-23T11:08:32.834Z,103488.16
2023-01-23T11:11:15.413Z,103490.00
2023-01-23T11:13:47.328Z,103491.63
2023-01-23T11:16:26.442Z,103495.13
2023-01-23T11:19:09.775Z,103488.53
2023-01-23T11:21:51.528Z,103499.44
2023-01-23T11:24:39.217Z,103494.69
2023-01-23T11:27:26.613Z,103493.31
2023-01-23T11:30:08.968Z,103484.25
2023-01-23T11:33:01.175Z,103489.38
2023-01-23T11:36:00.988Z,103484.25
2023-01-23T11:38:37.709Z,103482.50
2023-01-23T11:41:14.141Z,103484.44
2023-01-23T11:43:46.022Z,103489.50
2023-01-23T11:46:44.466Z,103477.81
2023-01-23T11:49:23.184Z,103479.94
2023-01-23T11:52:02.518Z,103477.66
2023-01-23T11:55:03.472Z,103471.09
2023-01-23T11:57:49.546Z,103472.63
2023-01-23T12:00:38.001Z,103463.25
2023-01-23T12:03:34.349Z,103467.63
2023-01-23T12:06:45.358Z,103461.72
2023-01-23T12:09:18.337Z,103459.78
2023-01-23T12:12:17.313Z,103459.16
2023-01-23T12:14:57.586Z,103462.81
2023-01-23T12:18:04.858Z,103463.81
2023-01-23T12:20:48.314Z,103469.06
2023-01-23T12:23:47.850Z,103473.88
2023-01-23T12:26:23.642Z,103484.06
2023-01-23T12:29:18.589Z,103474.44
2023-01-23T12:32:04.381Z,103473.53
2023-01-23T12:34:56.965Z,103471.91
2023-01-23T12:37:46.348Z,103474.69
2023-01-23T12:40:34.040Z,103483.56
2023-01-23T12:43:10.579Z,103478.50
2023-01-23T12:45:42.166Z,103481.28
2023-01-23T12:48:42.203Z,103480.31
2023-01-23T12:51:38.035Z,103486.53
2023-01-23T12:54:12.779Z,103483.38
2023-01-23T12:56:41.909Z,103486.28
2023-01-23T12:59:15.849Z,103492.88
2023-01-23T13:02:32.975Z,103489.63
2023-01-23T13:05:45.679Z,103488.00
2023-01-23T13:08:22.549Z,103484.53
2023-01-23T13:11:42.824Z,103482.28
2023-01-23T13:15:07.004Z,103482.59
2023-01-23T13:17:37.867Z,103494.16
2023-01-23T13:20:44.608Z,103496.59
2023-01-23T13:23:35.382Z,103497.13
2023-01-23T13:26:20.295Z,103502.69
2023-01-23T13:28:58.051Z,103492.06
2023-01-23T13:31:46.589Z,103506.94
2023-01-23T13:34:16.766Z,103497.75
2023-01-23T13:36:54.089Z,103497.88
2023-01-23T13:39:31.296Z,103505.31
2023-01-23T13:42:16.066Z,103497.75
2023-01-23T13:45:16.878Z,103504.16
2023-01-23T14:20:24.720Z,103523.69
2023-01-23T14:22:57.764Z,103516.25
2023-01-23T14:25:27.206Z,103515.66
2023-01-23T14:28:19.975Z,103520.63
2023-01-23T14:30:59.147Z,103520.47
2023-01-23T14:33:38.043Z,103522.38
2023-01-23T14:36:07.828Z,103519.00
2023-01-23T14:38:35.299Z,103517.84
2023-01-23T14:41:07.380Z,103517.84
2023-01-23T14:43:36.601Z,103522.22
2023-01-23T14:46:14.170Z,103517.56
2023-01-23T14:48:46.617Z,103523.09
2023-01-23T14:51:25.439Z,103512.91
2023-01-23T14:54:06.521Z,103509.25
2023-01-23T14:56:39.579Z,103510.28
2023-01-23T14:59:31.210Z,103508.31
2023-01-23T15:02:05.295Z,103514.38
2023-01-23T15:04:39.535Z,103507.66
2023-01-23T15:07:17.379Z,103516.66
2023-01-23T15:09:46.453Z,103517.88
2023-01-23T15:12:21.376Z,103514.66
2023-01-23T15:14:55.233Z,103520.50
2023-01-23T15:17:25.177Z,103512.38
2023-01-23T15:19:59.502Z,103515.19
2023-01-23T15:22:30.174Z,103515.03
2023-01-23T15:25:28.552Z,103515.03
2023-01-23T15:28:02.591Z,103512.63
2023-01-23T15:30:35.517Z,103507.63
2023-01-23T15:33:09.165Z,103513.19
2023-01-23T15:35:40.791Z,103515.38
2023-01-23T15:38:19.312Z,103502.19
2023-01-23T15:40:46.499Z,103503.28
2023-01-23T15:43:18.848Z,103493.25
2023-01-23T15:45:46.556Z,103508.03
2023-01-23T15:48:13.643Z,103501.91
2023-01-23T15:50:45.298Z,103510.28
2023-01-23T15:53:16.247Z,103506.34
2023-01-23T15:55:45.597Z,103500.22
2023-01-23T15:58:17.183Z,103502.78
2023-01-23T16:00:44.459Z,103498.03
2023-01-23T16:03:15.015Z,103496.44
2023-01-23T16:05:42.453Z,103501.66
2023-01-23T16:08:22.957Z,103497.59
2023-01-23T16:10:52.501Z,103488.72
2023-01-23T16:13:19.565Z,103495.81
2023-01-23T16:15:46.724Z,103494.78
2023-01-23T16:18:13.707Z,103502.53
2023-01-23T16:20:44.608Z,103504.03
2023-01-23T16:23:39.134Z,103508.19
2023-01-23T16:26:23.758Z,103504.81
2023-01-23T16:28:52.886Z,103508.19
2023-01-23T16:31:23.271Z,103501.66
2023-01-23T16:33:52.695Z,103507.72
2023-01-23T16:36:20.541Z,103515.03
2023-01-23T16:38:56.588Z,103509.00
2023-01-23T16:41:25.548Z,103512.88
2023-01-23T16:43:55.206Z,103509.09
2023-01-23T16:46:24.512Z,103508.94
2023-01-23T16:48:54.756Z,103509.41
2023-01-23T16:51:26.545Z,103505.91
2023-01-23T16:54:02.256Z,103520.47
2023-01-23T16:56:39.674Z,103511.09
2023-01-23T16:59:15.345Z,103511.44
2023-01-23T17:01:48.197Z,103514.13
2023-01-23T17:04:20.219Z,103523.25
2023-01-23T17:06:48.557Z,103537.91
2023-01-23T17:09:17.301Z,103542.06
2023-01-23T17:11:54.595Z,103544.94
2023-01-23T17:14:30.342Z,103540.94
2023-01-23T17:17:07.131Z,103546.03
2023-01-23T17:19:41.613Z,103560.97
2023-01-23T17:22:25.731Z,103553.69
2023-01-23T17:24:52.976Z,103562.00
2023-01-23T17:27:19.869Z,103563.31
2023-01-23T17:29:46.840Z,103559.13
2023-01-23T17:32:43.320Z,103559.25
2023-01-23T17:35:33.823Z,103565.75
2023-01-23T17:38:01.531Z,103554.63
2023-01-23T17:40:29.019Z,103548.28
2023-01-23T17:42:56.173Z,103548.22
2023-01-23T17:45:25.370Z,103545.59
2023-01-23T17:47:58.706Z,103553.53
2023-01-23T17:50:27.329Z,103546.59
2023-01-23T17:52:54.780Z,103557.88
2023-01-23T17:55:32.061Z,103556.44
2023-01-23T17:58:01.682Z,103562.06
2023-01-23T18:00:29.011Z,103561.03
2023-01-23T18:02:59.040Z,103559.06
2023-01-23T18:05:28.908Z,103560.66
2023-01-23T18:07:57.846Z,103561.97
2023-01-23T18:10:30.943Z,103558.03
2023-01-23T18:13:29.944Z,103561.69
2023-01-23T18:15:58.829Z,103565.03
2023-01-23T18:18:36.797Z,103565.94
2023-01-23T18:21:07.944Z,103565.50
2023-01-23T18:23:38.007Z,103571.03
2023-01-23T18:26:27.665Z,103573.50
2023-01-23T18:29:59.396Z,103579.25
2023-01-23T18:33:19.235Z,103586.97
2023-01-23T18:36:24.936Z,103589.81
2023-01-23T18:39:25.902Z,103593.03
2023-01-23T18:42:56.398Z,103587.03
2023-01-23T18:45:28.288Z,103590.22
2023-01-23T18:47:58.058Z,103592.50
2023-01-23T18:50:27.060Z,103593.72
2023-01-23T18:53:16.622Z,103596.84
2023-01-23T18:56:32.960Z,103599.53
2023-01-23T18:59:22.378Z,103603.03
2023-01-23T19:01:58.772Z,103598.97
2023-01-23T19:04:38.441Z,103598.72
2023-01-23T19:07:18.498Z,103595.91
2023-01-23T19:09:47.136Z,103597.50
2023-01-23T19:12:43.278Z,103600.41
2023-01-23T19:15:34.080Z,103595.66
2023-01-23T19:18:11.664Z,103596.06
2023-01-23T19:20:38.608Z,103597.25
2023-01-23T19:23:43.083Z,103604.94
2023-01-23T19:26:17.370Z,103605.06
2023-01-23T19:28:44.685Z,103609.66
2023-01-23T19:31:24.596Z,103604.53
2023-01-23T19:33:52.615Z,103612.63
2023-01-23T19:36:23.361Z,103606.56
2023-01-23T19:38:52.694Z,103606.31
2023-01-23T19:41:26.545Z,103611.22
2023-01-23T19:43:56.248Z,103612.56
2023-01-23T19:46:28.972Z,103607.72
2023-01-23T19:48:57.252Z,103605.75
2023-01-23T19:51:29.095Z,103603.31
2023-01-23T19:53:56.317Z,103603.72
2023-01-23T19:56:23.447Z,103604.41
2023-01-23T19:58:50.484Z,103607.75
2023-01-23T20:01:27.725Z,103600.09
2023-01-23T20:03:54.801Z,103605.22
2023-01-23T20:06:24.117Z,103604.34
2023-01-23T20:08:53.525Z,103613.69
2023-01-23T20:11:20.828Z,103602.84
2023-01-23T20:13:50.795Z,103609.66
2023-01-23T20:16:21.958Z,103604.97
2023-01-23T20:18:53.640Z,103615.31
2023-01-23T20:21:28.033Z,103604.28
2023-01-23T20:23:56.977Z,103607.97
2023-01-23T20:26:24.459Z,103600.66
2023-01-23T20:28:55.647Z,103600.78
2023-01-23T20:31:23.106Z,103603.06
2023-01-23T20:33:50.828Z,103602.88
2023-01-23T20:36:20.242Z,103598.22
2023-01-23T20:38:51.178Z,103602.41
2023-01-23T20:41:20.494Z,103604.41
2023-01-23T20:43:53.358Z,103606.28
2023-01-23T20:46:25.715Z,103609.13
2023-01-23T20:48:56.716Z,103614.31
2023-01-23T20:51:23.797Z,103603.34
2023-01-23T20:53:55.568Z,103611.53
2023-01-23T20:56:28.681Z,103619.34
2023-01-23T20:59:15.929Z,103620.66
2023-01-23T21:02:02.721Z,103611.06
2023-01-23T21:04:33.720Z,103616.38
2023-01-23T21:07:01.256Z,103616.00
2023-01-23T21:09:29.100Z,103618.69
2023-01-23T21:12:00.725Z,103618.69
2023-01-23T21:14:27.901Z,103616.81
2023-01-23T21:16:54.934Z,103613.31
2023-01-23T21:19:22.294Z,103620.63
2023-01-23T21:21:49.365Z,103620.72
2023-01-23T21:24:16.811Z,103623.81
2023-01-23T21:26:44.076Z,103627.56
2023-01-23T21:29:11.317Z,103632.16
2023-01-23T21:31:41.925Z,103629.72
2023-01-23T21:34:13.389Z,103628.56
2023-01-23T21:36:45.577Z,103626.91
2023-01-23T21:39:17.194Z,103623.25
2023-01-23T21:41:44.465Z,103629.53
2023-01-23T21:44:12.032Z,103625.28
2023-01-23T21:46:40.061Z,103630.94
2023-01-23T21:49:07.328Z,103628.09
2023-01-23T21:51:36.867Z,103631.06
2023-01-23T21:54:04.179Z,103635.25
2023-01-23T21:56:31.341Z,103637.13
2023-01-23T21:58:58.972Z,103634.63
2023-01-23T22:01:33.215Z,103634.16
2023-01-23T22:04:04.404Z,103629.78
2023-01-23T22:06:33.270Z,103640.56
2023-01-23T22:09:00.604Z,103633.00
2023-01-23T22:11:28.108Z,103641.44
2023-01-23T22:13:58.596Z,103647.78
2023-01-23T22:16:46.781Z,103643.13
2023-01-23T22:19:21.046Z,103648.72
2023-01-23T22:21:49.571Z,103638.88
2023-01-23T22:24:16.713Z,103637.00
2023-01-23T22:26:46.259Z,103636.06
2023-01-23T22:29:14.852Z,103646.81
2023-01-23T22:31:46.782Z,103634.91
2023-01-23T22:34:13.971Z,103643.72
2023-01-23T22:36:40.894Z,103642.44
2023-01-23T22:39:07.785Z,103643.94
2023-01-23T22:41:34.856Z,103645.53
2023-01-23T22:44:01.768Z,103645.81
2023-01-23T22:46:32.425Z,103655.72
2023-01-23T22:48:59.352Z,103652.59
2023-01-23T22:51:29.505Z,103656.25
2023-01-23T22:54:00.641Z,103655.72
2023-01-23T22:56:28.781Z,103654.97
2023-01-23T22:58:57.270Z,103660.44
2023-01-23T23:01:27.264Z,103658.00
2023-01-23T23:03:59.822Z,103662.25
2023-01-23T23:06:27.688Z,103661.50
2023-01-23T23:08:55.409Z,103664.72
2023-01-23T23:11:25.521Z,103665.81
2023-01-23T23:13:55.651Z,103655.56
2023-01-23T23:16:27.225Z,103650.88
2023-01-23T23:18:59.129Z,103646.97
2023-01-23T23:21:30.314Z,103636.13
2023-01-23T23:24:03.308Z,103633.56
2023-01-23T23:26:32.049Z,103620.44
2023-01-23T23:29:02.589Z,103620.44
2023-01-23T23:31:29.836Z,103619.44
2023-01-23T23:33:57.057Z,103619.88
2023-01-23T23:36:29.071Z,103620.41
2023-01-23T23:38:56.251Z,103615.97
2023-01-23T23:41:23.291Z,103623.53
2023-01-23T23:43:52.970Z,103622.72
2023-01-23T23:46:20.219Z,103615.31
2023-01-23T23:48:48.159Z,103622.31
2023-01-23T23:51:19.023Z,103638.06
2023-01-23T23:53:47.053Z,103637.34
2023-01-23T23:56:21.334Z,103642.78
2023-01-23T23:58:50.916Z,103633.09
